createdAt,value
2018-09-18T00:00:58.874Z,0.20
2018-09-18T00:03:26.317Z,0.10
2018-09-18T00:05:53.913Z,0.20
2018-09-18T00:08:21.381Z,0.30
2018-09-18T00:10:48.867Z,0.10
2018-09-18T00:13:16.477Z,0.60
2018-09-18T00:15:43.961Z,0.33
2018-09-18T00:18:11.627Z,0.20
2018-09-18T00:20:39.263Z,0.30
2018-09-18T00:23:06.706Z,0.30
2018-09-18T00:25:34.965Z,0.20
2018-09-18T00:28:02.627Z,0.20
2018-09-18T00:30:30.129Z,0.20
2018-09-18T00:32:57.667Z,0.20
2018-09-18T00:35:25.357Z,0.20
2018-09-18T00:37:52.842Z,0.30
2018-09-18T00:40:20.259Z,0.17
2018-09-18T00:42:48.011Z,0.30
2018-09-18T00:45:15.439Z,0.20
2018-09-18T00:47:42.862Z,0.40
2018-09-18T00:50:10.789Z,0.27
2018-09-18T00:52:38.281Z,0.10
2018-09-18T00:55:05.800Z,0.20
2018-09-18T00:57:34.309Z,0.30
2018-09-18T01:00:01.734Z,0.20
2018-09-18T01:02:29.216Z,0.10
2018-09-18T01:04:56.779Z,0.20
2018-09-18T01:07:24.191Z,0.30
2018-09-18T01:09:51.708Z,0.30
2018-09-18T01:12:19.425Z,0.10
2018-09-18T01:14:46.907Z,0.20
2018-09-18T01:17:14.368Z,0.20
2018-09-18T01:19:42.278Z,0.13
2018-09-18T01:22:09.772Z,0.30
2018-09-18T01:24:37.276Z,0.30
2018-09-18T01:27:04.987Z,0.30
2018-09-18T01:29:32.460Z,0.20
2018-09-18T01:31:59.907Z,0.30
2018-09-18T01:34:27.523Z,0.30
2018-09-18T01:36:55.038Z,0.20
2018-09-18T01:39:22.500Z,0.20
2018-09-18T01:41:50.125Z,0.30
2018-09-18T01:44:17.576Z,0.20
2018-09-18T01:46:45.129Z,0.20
2018-09-18T01:49:13.076Z,0.20
2018-09-18T01:51:40.534Z,0.10
2018-09-18T01:54:07.937Z,0.20
2018-09-18T01:56:35.665Z,0.23
2018-09-18T01:59:03.160Z,0.10
2018-09-18T02:01:30.611Z,0.20
2018-09-18T02:03:58.250Z,0.20
2018-09-18T02:06:25.718Z,0.10
2018-09-18T02:08:53.124Z,0.10
2018-09-18T02:11:20.824Z,0.20
2018-09-18T02:13:48.347Z,0.10
2018-09-18T02:16:15.801Z,0.10
2018-09-18T02:18:43.544Z,0.27
2018-09-18T02:21:11.300Z,0.10
2018-09-18T02:23:38.700Z,0.10
2018-09-18T02:26:06.486Z,0.40
2018-09-18T02:28:33.989Z,0.10
2018-09-18T02:31:01.443Z,0.13
2018-09-18T02:33:29.171Z,0.20
2018-09-18T02:35:56.644Z,0.10
2018-09-18T02:38:24.124Z,0.27
2018-09-18T02:40:51.767Z,0.10
2018-09-18T02:43:19.258Z,0.20
2018-09-18T02:45:46.747Z,0.30
2018-09-18T02:48:14.322Z,0.17
2018-09-18T02:50:41.818Z,0.30
2018-09-18T02:53:09.296Z,0.30
2018-09-18T02:55:36.958Z,0.20
2018-09-18T02:58:04.616Z,0.20
2018-09-18T03:00:32.009Z,0.30
2018-09-18T03:02:59.691Z,0.20
2018-09-18T03:05:27.128Z,0.20
2018-09-18T03:07:54.567Z,0.10
2018-09-18T03:10:22.198Z,0.20
2018-09-18T03:12:49.621Z,0.30
2018-09-18T03:15:17.118Z,0.23
2018-09-18T03:17:45.005Z,0.30
2018-09-18T03:20:12.457Z,0.20
2018-09-18T03:22:40.000Z,0.27
2018-09-18T03:25:07.822Z,0.20
2018-09-18T03:27:35.292Z,0.40
2018-09-18T03:30:02.746Z,0.30
2018-09-18T03:32:30.299Z,0.50
2018-09-18T03:34:57.772Z,0.30
2018-09-18T03:37:25.267Z,0.20
2018-09-18T03:39:52.804Z,0.10
2018-09-18T03:42:20.289Z,0.40
2018-09-18T03:44:47.714Z,0.30
2018-09-18T03:47:15.474Z,0.40
2018-09-18T03:49:42.954Z,0.60
2018-09-18T03:52:10.407Z,0.40
2018-09-18T03:54:38.167Z,0.50
2018-09-18T03:57:05.607Z,0.40
2018-09-18T03:59:33.080Z,0.70
2018-09-18T04:02:00.673Z,0.40
2018-09-18T04:04:28.144Z,0.30
2018-09-18T04:06:55.648Z,0.40
2018-09-18T04:09:23.350Z,0.30
2018-09-18T04:11:50.821Z,0.30
2018-09-18T04:14:18.252Z,0.30
2018-09-18T04:16:45.887Z,0.37
2018-09-18T04:19:13.484Z,1.20
2018-09-18T04:21:41.829Z,0.40
2018-09-18T04:24:09.716Z,0.30
2018-09-18T04:26:39.394Z,0.27
2018-09-18T04:29:07.395Z,0.20
2018-09-18T04:31:35.193Z,0.40
2018-09-18T04:34:02.710Z,0.83
2018-09-18T04:36:30.128Z,0.27
2018-09-18T04:38:57.829Z,0.40
2018-09-18T04:41:25.344Z,0.40
2018-09-18T04:43:52.890Z,0.37
2018-09-18T04:46:20.505Z,0.50
2018-09-18T04:48:48.005Z,0.50
2018-09-18T04:51:15.452Z,0.60
2018-09-18T04:53:43.127Z,0.60
2018-09-18T04:56:10.670Z,0.90
2018-09-18T04:58:38.127Z,0.67
2018-09-18T05:01:05.845Z,1.20
2018-09-18T05:03:33.241Z,1.03
2018-09-18T05:06:01.178Z,0.80
2018-09-18T05:08:28.808Z,0.90
2018-09-18T05:10:56.261Z,0.77
2018-09-18T05:13:23.715Z,0.90
2018-09-18T05:15:51.290Z,0.57
2018-09-18T05:18:18.773Z,0.60
2018-09-18T05:20:46.244Z,0.77
2018-09-18T05:23:13.950Z,1.27
2018-09-18T05:25:41.762Z,1.13
2018-09-18T05:28:09.201Z,0.70
2018-09-18T05:30:36.872Z,1.77
2018-09-18T05:33:04.504Z,0.93
2018-09-18T05:35:31.956Z,1.27
2018-09-18T05:37:59.670Z,1.30
2018-09-18T05:40:27.128Z,1.27
2018-09-18T05:42:54.525Z,1.10
2018-09-18T05:45:22.208Z,1.27
2018-09-18T05:47:49.691Z,1.10
2018-09-18T05:50:17.135Z,0.90
2018-09-18T05:52:44.765Z,0.67
2018-09-18T05:55:12.343Z,0.67
2018-09-18T05:57:39.754Z,0.80
2018-09-18T06:00:07.413Z,0.80
2018-09-18T06:02:34.891Z,0.70
2018-09-18T06:05:02.326Z,0.70
2018-09-18T06:07:30.048Z,0.90
2018-09-18T06:09:57.577Z,0.80
2018-09-18T06:12:25.089Z,1.00
2018-09-18T06:14:52.826Z,0.90
2018-09-18T06:17:20.306Z,0.90
2018-09-18T06:19:47.787Z,0.97
2018-09-18T06:22:15.408Z,0.70
2018-09-18T06:24:42.855Z,0.80
2018-09-18T06:27:10.524Z,0.90
2018-09-18T06:29:38.226Z,1.13
2018-09-18T06:32:05.618Z,1.20
2018-09-18T06:34:33.078Z,1.37
2018-09-18T06:37:00.750Z,1.57
2018-09-18T06:39:28.255Z,1.30
2018-09-18T06:41:55.718Z,1.40
2018-09-18T06:44:23.421Z,1.30
2018-09-18T06:46:50.874Z,1.13
2018-09-18T06:49:18.376Z,1.00
2018-09-18T06:51:46.036Z,0.83
2018-09-18T06:54:13.471Z,0.93
2018-09-18T06:56:40.927Z,1.00
2018-09-18T06:59:08.642Z,0.70
2018-09-18T07:01:36.126Z,0.80
2018-09-18T07:04:03.591Z,0.90
2018-09-18T07:06:31.137Z,1.57
2018-09-18T07:08:58.596Z,0.90
2018-09-18T07:11:26.012Z,0.50
2018-09-18T07:13:53.721Z,0.63
2018-09-18T07:16:21.144Z,0.60
2018-09-18T07:18:48.674Z,0.50
2018-09-18T07:21:16.383Z,0.70
2018-09-18T07:23:43.834Z,0.50
2018-09-18T07:26:11.302Z,0.63
2018-09-18T07:28:39.084Z,0.50
2018-09-18T07:31:06.590Z,0.50
2018-09-18T07:33:34.027Z,0.50
2018-09-18T07:36:01.829Z,0.77
2018-09-18T07:38:29.290Z,0.67
2018-09-18T07:40:56.792Z,0.57
2018-09-18T07:43:24.357Z,0.67
2018-09-18T07:45:51.803Z,0.60
2018-09-18T07:48:19.209Z,0.50
2018-09-18T07:50:47.052Z,0.50
2018-09-18T07:53:14.520Z,0.90
2018-09-18T07:55:41.959Z,0.60
2018-09-18T07:58:09.603Z,0.50
2018-09-18T08:00:37.064Z,0.60
2018-09-18T08:03:04.578Z,0.67
2018-09-18T08:05:32.356Z,0.60
2018-09-18T08:07:59.813Z,0.50
2018-09-18T08:10:27.332Z,0.53
2018-09-18T08:12:55.051Z,0.70
2018-09-18T08:15:22.559Z,0.97
2018-09-18T08:17:49.986Z,0.60
2018-09-18T08:20:17.666Z,0.50
2018-09-18T08:22:45.131Z,0.60
2018-09-18T08:25:12.621Z,0.43
2018-09-18T08:27:40.342Z,0.47
2018-09-18T08:30:08.191Z,0.50
2018-09-18T08:32:35.735Z,0.57
2018-09-18T08:35:03.499Z,0.57
2018-09-18T08:37:30.927Z,0.50
2018-09-18T08:39:58.481Z,0.30
2018-09-18T08:42:26.171Z,0.47
2018-09-18T08:44:53.648Z,0.60
2018-09-18T08:47:21.089Z,0.40
2018-09-18T08:49:48.745Z,0.43
2018-09-18T08:52:16.314Z,0.70
2018-09-18T08:54:43.772Z,0.50
2018-09-18T08:57:11.442Z,0.70
2018-09-18T08:59:38.985Z,0.70
2018-09-18T09:02:06.577Z,0.60
2018-09-18T09:04:34.224Z,0.50
2018-09-18T09:07:01.683Z,0.77
2018-09-18T09:09:29.232Z,0.70
2018-09-18T09:11:56.906Z,0.80
2018-09-18T09:14:24.418Z,0.60
2018-09-18T09:16:51.832Z,0.70
2018-09-18T09:19:19.517Z,0.60
2018-09-18T09:21:47.091Z,0.87
2018-09-18T09:24:14.519Z,0.60
2018-09-18T09:26:42.203Z,0.77
2018-09-18T09:29:09.615Z,0.90
2018-09-18T09:31:37.496Z,0.60
2018-09-18T09:34:05.162Z,0.60
2018-09-18T09:36:32.644Z,0.70
2018-09-18T09:39:00.093Z,0.80
2018-09-18T09:41:27.852Z,0.47
2018-09-18T09:43:55.357Z,0.63
2018-09-18T09:46:22.809Z,0.90
2018-09-18T09:48:50.558Z,0.50
2018-09-18T09:51:18.188Z,0.80
2018-09-18T09:53:45.634Z,0.90
2018-09-18T09:56:13.373Z,0.47
2018-09-18T09:58:41.034Z,0.67
2018-09-18T10:01:13.986Z,0.53
2018-09-18T10:03:41.558Z,0.57
2018-09-18T10:06:08.982Z,0.60
2018-09-18T10:08:36.449Z,0.47
2018-09-18T10:11:04.220Z,0.50
2018-09-18T10:13:31.737Z,0.57
2018-09-18T10:15:59.172Z,0.80
2018-09-18T10:18:26.692Z,0.47
2018-09-18T10:20:54.190Z,0.50
2018-09-18T10:23:21.661Z,0.60
2018-09-18T10:25:49.379Z,0.50
2018-09-18T10:28:16.879Z,0.50
2018-09-18T10:30:44.335Z,0.60
2018-09-18T10:33:12.239Z,0.60
2018-09-18T10:35:39.675Z,0.67
2018-09-18T10:38:07.093Z,0.60
2018-09-18T10:40:34.645Z,0.40
2018-09-18T10:43:02.174Z,0.50
2018-09-18T10:45:29.681Z,0.47
2018-09-18T10:47:57.461Z,0.43
2018-09-18T10:50:25.043Z,0.60
2018-09-18T10:52:52.525Z,0.63
2018-09-18T10:55:20.121Z,0.53
2018-09-18T10:57:47.873Z,0.50
2018-09-18T11:00:15.368Z,0.50
2018-09-18T11:02:43.142Z,0.30
2018-09-18T11:05:10.652Z,0.77
2018-09-18T11:07:38.244Z,0.47
2018-09-18T11:10:06.061Z,0.60
2018-09-18T11:12:33.512Z,0.60
2018-09-18T11:15:01.044Z,0.57
2018-09-18T11:17:28.693Z,1.00
2018-09-18T11:19:56.154Z,0.60
2018-09-18T11:22:23.807Z,0.83
2018-09-18T11:24:51.416Z,0.50
2018-09-18T11:27:18.905Z,0.70
2018-09-18T11:29:46.391Z,0.60
2018-09-18T11:32:14.148Z,0.90
2018-09-18T11:34:41.778Z,0.60
2018-09-18T11:37:09.228Z,0.50
2018-09-18T11:39:36.866Z,0.80
2018-09-18T11:42:04.328Z,0.70
2018-09-18T11:44:31.804Z,0.73
2018-09-18T11:46:59.431Z,0.67
2018-09-18T11:49:26.940Z,0.50
2018-09-18T11:51:54.432Z,0.87
2018-09-18T11:54:22.124Z,0.80
2018-09-18T11:56:49.578Z,0.80
2018-09-18T11:59:17.036Z,0.80
2018-09-18T12:01:44.806Z,0.57
2018-09-18T12:04:12.330Z,0.50
2018-09-18T12:06:39.792Z,0.50
2018-09-18T12:09:08.558Z,0.50
2018-09-18T12:11:36.019Z,0.50
2018-09-18T12:14:03.447Z,0.50
2018-09-18T12:16:31.309Z,1.00
2018-09-18T12:18:58.750Z,0.57
2018-09-18T12:21:26.195Z,0.50
2018-09-18T12:23:53.944Z,0.40
2018-09-18T12:26:21.364Z,0.70
2018-09-18T12:28:48.845Z,0.50
2018-09-18T12:31:16.498Z,0.43
2018-09-18T12:33:43.977Z,0.40
2018-09-18T12:36:11.565Z,0.60
2018-09-18T12:38:39.119Z,0.53
2018-09-18T12:41:06.615Z,0.40
2018-09-18T12:43:34.057Z,0.50
2018-09-18T12:46:01.664Z,0.70
2018-09-18T12:48:29.145Z,0.70
2018-09-18T12:50:56.659Z,1.03
2018-09-18T12:53:24.247Z,1.10
2018-09-18T12:55:51.690Z,0.93
2018-09-18T12:58:19.199Z,0.70
2018-09-18T13:00:46.974Z,0.73
2018-09-18T13:03:14.412Z,0.70
2018-09-18T13:05:41.852Z,0.50
2018-09-18T13:08:09.584Z,0.70
2018-09-18T13:10:36.985Z,0.50
2018-09-18T13:13:04.644Z,0.47
2018-09-18T13:15:32.320Z,0.47
2018-09-18T13:17:59.982Z,0.60
2018-09-18T13:20:27.493Z,0.40
2018-09-18T13:22:55.132Z,0.40
2018-09-18T13:25:22.655Z,0.50
2018-09-18T13:27:50.173Z,0.40
2018-09-18T13:30:17.773Z,0.40
2018-09-18T13:32:45.442Z,0.40
2018-09-18T13:35:12.790Z,0.40
2018-09-18T13:37:40.747Z,0.60
2018-09-18T13:40:08.392Z,0.50
2018-09-18T13:42:35.797Z,0.50
2018-09-18T13:45:03.666Z,0.50
2018-09-18T13:47:31.105Z,0.47
2018-09-18T13:49:58.566Z,0.60
2018-09-18T13:52:26.238Z,0.70
2018-09-18T13:54:53.731Z,0.30
2018-09-18T13:57:21.193Z,0.50
2018-09-18T13:59:48.959Z,0.53
2018-09-18T14:02:16.522Z,0.50
2018-09-18T14:04:44.039Z,0.60
2018-09-18T14:07:11.675Z,0.50
2018-09-18T14:09:39.111Z,0.70
2018-09-18T14:12:06.648Z,0.80
2018-09-18T14:14:34.271Z,0.50
2018-09-18T14:17:01.747Z,0.63
2018-09-18T14:19:29.189Z,0.80
2018-09-18T14:21:56.787Z,0.60
2018-09-18T14:24:24.224Z,0.80
2018-09-18T14:26:51.789Z,0.60
2018-09-18T14:29:19.381Z,0.80
2018-09-18T14:31:46.841Z,0.77
2018-09-18T14:34:14.321Z,0.60
2018-09-18T14:36:48.661Z,0.57
2018-09-18T14:39:16.265Z,0.93
2018-09-18T14:41:43.730Z,0.70
2018-09-18T14:44:11.369Z,1.77
2018-09-18T14:46:38.950Z,0.63
2018-09-18T14:49:06.383Z,0.80
2018-09-18T14:51:33.977Z,0.87
2018-09-18T14:54:01.464Z,0.80
2018-09-18T14:56:28.949Z,1.00
2018-09-18T14:58:56.549Z,0.70
2018-09-18T15:01:24.003Z,0.87
2018-09-18T15:03:51.474Z,0.90
2018-09-18T15:06:19.082Z,0.90
2018-09-18T15:08:47.205Z,0.90
2018-09-18T15:11:14.752Z,1.00
2018-09-18T15:13:42.275Z,0.97
2018-09-18T15:16:09.712Z,1.10
2018-09-18T15:18:37.156Z,1.17
2018-09-18T15:21:04.784Z,0.97
2018-09-18T15:23:32.220Z,0.77
2018-09-18T15:25:59.667Z,1.00
2018-09-18T15:28:27.351Z,1.23
2018-09-18T15:30:54.829Z,1.00
2018-09-18T15:33:22.345Z,0.97
2018-09-18T15:35:50.054Z,1.10
2018-09-18T15:38:17.526Z,1.20
2018-09-18T15:40:45.226Z,1.30
2018-09-18T15:43:12.883Z,1.10
2018-09-18T15:45:40.367Z,1.00
2018-09-18T15:48:07.822Z,1.40
2018-09-18T15:50:35.601Z,1.10
2018-09-18T15:53:03.016Z,1.20
2018-09-18T15:55:30.465Z,1.20
2018-09-18T15:57:58.221Z,1.20
2018-09-18T16:00:25.609Z,0.67
2018-09-18T16:02:53.021Z,1.00
2018-09-18T16:05:20.676Z,1.00
2018-09-18T16:07:48.145Z,1.10
2018-09-18T16:10:15.607Z,0.93
2018-09-18T16:12:43.373Z,1.10
2018-09-18T16:15:10.892Z,1.00
2018-09-18T16:17:38.340Z,0.93
2018-09-18T16:20:06.035Z,0.90
2018-09-18T16:22:33.616Z,0.90
2018-09-18T16:25:01.139Z,1.23
2018-09-18T16:27:28.702Z,1.03
2018-09-18T16:29:56.100Z,1.87
2018-09-18T16:32:23.561Z,0.90
2018-09-18T16:34:51.293Z,0.97
2018-09-18T16:37:18.827Z,0.93
2018-09-18T16:39:46.261Z,1.10
2018-09-18T16:42:14.060Z,1.13
2018-09-18T16:44:41.514Z,1.00
2018-09-18T16:47:08.994Z,1.03
2018-09-18T16:49:36.698Z,0.97
2018-09-18T16:52:04.245Z,1.07
2018-09-18T16:54:32.334Z,1.10
2018-09-18T16:56:59.912Z,0.90
2018-09-18T16:59:27.346Z,0.90
2018-09-18T17:01:54.796Z,1.20
2018-09-18T17:04:22.471Z,0.93
2018-09-18T17:06:50.027Z,1.20
2018-09-18T17:09:18.317Z,0.93
2018-09-18T17:11:46.052Z,1.00
2018-09-18T17:14:13.461Z,0.90
2018-09-18T17:16:40.965Z,0.93
2018-09-18T17:19:08.608Z,1.00
2018-09-18T17:21:36.064Z,1.10
2018-09-18T17:24:03.525Z,0.97
2018-09-18T17:26:32.082Z,0.97
2018-09-18T17:28:59.659Z,1.00
2018-09-18T17:31:27.106Z,0.70
2018-09-18T17:33:54.795Z,0.97
2018-09-18T17:36:22.309Z,0.70
2018-09-18T17:38:49.825Z,0.60
2018-09-18T17:41:17.448Z,0.77
2018-09-18T17:44:47.942Z,0.90
2018-09-18T17:47:15.524Z,0.93
2018-09-18T17:49:43.056Z,0.87
2018-09-18T17:52:10.488Z,0.90
2018-09-18T17:54:38.085Z,1.00
2018-09-18T17:57:06.444Z,1.10
2018-09-18T17:59:35.939Z,0.90
2018-09-18T18:02:03.505Z,0.83
2018-09-18T18:04:30.951Z,1.10
2018-09-18T18:06:58.488Z,1.10
2018-09-18T18:09:26.096Z,0.70
2018-09-18T18:11:53.768Z,0.90
2018-09-18T18:14:21.666Z,0.63
2018-09-18T18:16:49.399Z,0.77
2018-09-18T18:19:16.842Z,0.87
2018-09-18T18:21:44.318Z,0.77
2018-09-18T18:24:11.897Z,0.73
2018-09-18T18:26:39.389Z,0.90
2018-09-18T18:29:06.852Z,1.53
2018-09-18T18:31:34.465Z,0.67
2018-09-18T18:34:01.962Z,1.10
2018-09-18T18:36:29.512Z,1.10
2018-09-18T18:38:57.123Z,0.80
2018-09-18T18:41:24.550Z,0.90
2018-09-18T18:43:52.025Z,1.00
2018-09-18T18:46:19.684Z,0.77
2018-09-18T18:48:47.162Z,0.77
2018-09-18T18:51:14.607Z,0.93
2018-09-18T18:53:42.256Z,1.30
2018-09-18T18:56:09.684Z,0.80
2018-09-18T18:58:37.154Z,1.00
2018-09-18T19:01:04.763Z,0.90
2018-09-18T19:03:32.248Z,0.97
2018-09-18T19:05:59.691Z,1.00
2018-09-18T19:08:27.285Z,0.90
2018-09-18T19:10:54.798Z,1.10
2018-09-18T19:13:22.297Z,1.10
2018-09-18T19:15:49.974Z,1.40
2018-09-18T19:18:17.505Z,1.47
2018-09-18T19:20:44.929Z,1.00
2018-09-18T19:23:12.658Z,1.20
2018-09-18T19:25:40.129Z,0.90
2018-09-18T19:28:07.607Z,1.10
2018-09-18T19:30:35.144Z,1.10
2018-09-18T19:33:02.590Z,2.17
2018-09-18T19:35:30.001Z,1.40
2018-09-18T19:37:57.448Z,1.23
2018-09-18T19:40:24.924Z,1.40
2018-09-18T19:42:52.439Z,1.30
2018-09-18T19:45:20.099Z,1.70
2018-09-18T19:47:47.671Z,1.70
2018-09-18T19:50:16.512Z,1.50
2018-09-18T19:52:45.044Z,1.40
2018-09-18T19:55:12.937Z,1.27
2018-09-18T19:57:40.438Z,1.63
2018-09-18T20:00:08.547Z,1.50
2018-09-18T20:02:36.007Z,1.33
2018-09-18T20:05:03.479Z,1.30
2018-09-18T20:07:31.425Z,1.40
2018-09-18T20:09:58.945Z,1.40
2018-09-18T20:12:26.417Z,1.40
2018-09-18T20:14:54.148Z,1.20
2018-09-18T20:17:21.571Z,1.37
2018-09-18T20:19:49.036Z,0.90
2018-09-18T20:22:16.639Z,1.07
2018-09-18T20:24:44.108Z,1.00
2018-09-18T20:27:11.598Z,0.87
2018-09-18T20:29:39.325Z,1.00
2018-09-18T20:32:06.723Z,0.90
2018-09-18T20:34:34.194Z,0.90
2018-09-18T20:37:01.805Z,1.50
2018-09-18T20:39:29.213Z,1.67
2018-09-18T20:41:56.701Z,1.50
2018-09-18T20:44:24.324Z,1.60
2018-09-18T20:46:51.777Z,1.57
2018-09-18T20:49:19.267Z,1.40
2018-09-18T20:51:46.903Z,1.17
2018-09-18T20:54:14.384Z,1.20
2018-09-18T20:56:41.872Z,1.37
2018-09-18T20:59:09.402Z,1.30
2018-09-18T21:01:36.871Z,1.50
2018-09-18T21:04:04.358Z,1.00
2018-09-18T21:06:31.932Z,1.10
2018-09-18T21:08:59.416Z,1.47
2018-09-18T21:11:26.899Z,1.30
2018-09-18T21:13:54.527Z,1.33
2018-09-18T21:16:21.993Z,1.00
2018-09-18T21:18:49.511Z,1.17
2018-09-18T21:21:17.022Z,1.10
2018-09-18T21:23:44.497Z,1.00
2018-09-18T21:26:14.075Z,1.10
2018-09-18T21:28:41.640Z,1.20
2018-09-18T21:31:09.232Z,1.17
2018-09-18T21:33:36.745Z,1.07
2018-09-18T21:36:04.403Z,1.10
2018-09-18T21:38:32.127Z,1.00
2018-09-18T21:41:00.157Z,1.37
2018-09-18T21:43:28.330Z,1.00
2018-09-18T21:45:55.813Z,1.00
2018-09-18T21:48:23.267Z,1.50
2018-09-18T21:50:51.198Z,1.03
2018-09-18T21:53:18.734Z,1.20
2018-09-18T21:55:46.374Z,1.10
2018-09-18T21:58:14.078Z,1.23
2018-09-18T22:00:42.057Z,1.30
2018-09-18T22:03:09.710Z,1.30
2018-09-18T22:05:37.578Z,1.30
2018-09-18T22:08:05.180Z,1.53
2018-09-18T22:10:32.814Z,1.40
2018-09-18T22:13:01.129Z,1.20
2018-09-18T22:15:29.297Z,1.30
2018-09-18T22:17:56.954Z,1.43
2018-09-18T22:20:24.819Z,1.40
2018-09-18T22:22:52.405Z,1.23
2018-09-18T22:25:20.783Z,1.07
2018-09-18T22:27:48.745Z,1.30
2018-09-18T22:30:16.418Z,1.40
2018-09-18T22:32:44.027Z,1.27
2018-09-18T22:35:11.806Z,1.30
2018-09-18T22:37:39.384Z,1.30
2018-09-18T22:40:07.039Z,1.73
2018-09-18T22:42:34.817Z,1.23
2018-09-18T22:45:02.400Z,1.70
2018-09-18T22:47:30.022Z,1.30
2018-09-18T22:49:57.640Z,1.33
2018-09-18T22:52:25.293Z,1.20
2018-09-18T22:54:52.728Z,1.37
2018-09-18T22:57:20.319Z,1.60
2018-09-18T22:59:47.830Z,1.57
2018-09-18T23:02:15.245Z,1.43
2018-09-18T23:04:42.857Z,1.70
2018-09-18T23:07:10.337Z,1.20
2018-09-18T23:09:37.789Z,1.40
2018-09-18T23:12:05.418Z,1.10
2018-09-18T23:14:32.914Z,1.33
2018-09-18T23:17:00.339Z,1.40
2018-09-18T23:19:28.235Z,1.20
2018-09-18T23:21:55.669Z,1.20
2018-09-18T23:24:23.158Z,1.27
2018-09-18T23:26:50.848Z,1.00
2018-09-18T23:29:18.237Z,1.30
2018-09-18T23:31:45.679Z,1.20
2018-09-18T23:34:13.414Z,1.00
2018-09-18T23:36:40.875Z,1.30
2018-09-18T23:39:08.825Z,1.00
2018-09-18T23:41:36.556Z,1.07
2018-09-18T23:44:03.980Z,1.17
2018-09-18T23:46:31.439Z,1.40
2018-09-18T23:48:59.045Z,1.00
2018-09-18T23:51:26.681Z,1.27
2018-09-18T23:53:54.674Z,1.63
2018-09-18T23:56:22.397Z,1.40
2018-09-18T23:58:49.835Z,1.60
